EST,Max TemperatureF,Mean TemperatureF,Min TemperatureF,Max Dew PointF,MeanDew PointF,Min DewpointF,Max Humidity, Mean Humidity, Min Humidity, Max Sea Level PressureIn, Mean Sea Level PressureIn, Min Sea Level PressureIn, Max VisibilityMiles, Mean VisibilityMiles, Min VisibilityMiles, Max Wind SpeedMPH, Mean Wind SpeedMPH, Max Gust SpeedMPH,PrecipitationIn, CloudCover, Events, WindDirDegrees
2013-1-1,32,16,0,29,4,-6,92,66,53,29.97,29.86,29.64,10,10,4,12,7,24,0.00,3,Snow,283
2013-1-2,9,-2,-13,6,-4,-19,87,76,59,30.27,30.06,29.87,10,7,1,13,2,,0.00,5,Snow,1
2013-1-3,14,-1,-16,6,-8,-21,79,72,60,30.28,30.11,29.87,10,10,7,10,3,18,0.00,4,,152
2013-1-4,32,23,14,27,20,7,84,75,68,29.86,29.76,29.70,10,8,2,12,7,22,0.00,8,Snow,217
2013-1-5,32,20,7,24,9,2,81,65,46,30.25,30.12,29.73,10,10,5,13,7,23,0.00,4,Snow,317
2013-1-6,32,22,11,27,18,6,91,83,74,30.16,29.96,29.85,10,6,1,10,5,16,0.00,8,Snow,182
2013-1-7,14,7,0,11,3,-4,90,77,57,30.40,30.28,30.04,10,8,2,12,5,17,0.00,4,Snow,10
2013-1-8,34,26,17,26,21,14,92,73,64,30.35,30.24,30.13,10,10,5,15,8,23,0.00,4,,192
2013-1-9,39,28,18,31,23,16,93,73,51,30.34,30.10,29.84,10,9,4,16,5,31,0.00,4,,192
2013-1-10,37,30,23,28,24,21,91,69,57,30.56,30.41,29.99,10,10,10,17,8,28,0.00,6,,278
2013-1-11,38,30,22,33,23,18,94,73,44,30.53,30.27,30.04,10,10,10,18,5,28,0.00,4,Rain,148
2013-1-12,46,42,38,41,37,33,92,85,75,30.07,30.03,29.98,10,10,3,14,9,26,0.00,4,Rain,186
2013-1-13,49,44,39,45,40,37,93,87,72,30.07,29.93,29.79,10,10,10,14,8,22,0.00,5,Rain,186
2013-1-14,51,42,32,46,33,19,92,75,59,30.29,30.05,29.71,10,9,4,17,8,29,0.00,7,Rain,262
2013-1-15,32,28,24,20,18,14,73,65,51,30.35,30.29,30.23,10,10,7,7,3,,0.00,7,Snow,291
2013-1-16,31,29,27,30,23,18,94,83,67,30.23,29.94,29.73,10,8,2,9,3,17,0.00,6,Snow,167
2013-1-17,32,18,2,28,6,-14,86,62,40,30.23,30.02,29.73,10,10,1,14,7,29,0.00,4,Snow,292
2013-1-18,18,8,-3,6,-7,-14,73,54,35,30.35,30.29,30.19,10,10,10,10,2,18,0.00,2,,225
2013-1-19,38,28,17,23,18,6,88,65,52,30.18,29.92,29.68,10,7,1,14,9,25,0.00,8,Snow,183
2013-1-20,40,24,8,30,16,-2,77,57,42,30.01,29.61,29.31,10,10,4,20,12,38,0.00,5,Rain-Snow,231
2013-1-21,9,5,1,1,-3,-7,77,65,56,30.08,30.00,29.88,10,10,5,9,5,,0.00,5,,339
2013-1-22,6,2,-3,1,-7,-14,82,68,48,30.11,29.95,29.82,10,9,1,10,4,22,0.00,4,Snow,320
2013-1-23,-3,-8,-13,-13,-19,-22,71,60,48,30.24,30.19,30.11,10,10,10,8,4,,0.00,0,,302
2013-1-24,4,-4,-13,-11,-16,-20,73,54,42,30.38,30.24,30.17,10,10,7,12,5,24,0.00,4,,285
2013-1-25,9,3,-3,1,-8,-12,79,60,46,30.39,30.28,30.13,10,9,4,14,5,21,0.00,4,,278
2013-1-26,12,5,-2,2,-3,-7,80,66,43,30.30,30.20,30.12,10,10,4,7,2,,0.00,3,,298
2013-1-27,14,8,1,1,-3,-6,76,64,43,30.53,30.46,30.31,10,10,10,7,4,,0.00,0,,323
2013-1-28,21,12,2,20,8,-4,93,77,44,30.47,30.21,29.99,10,6,1,7,4,,0.00,6,Snow,124
2013-1-29,38,26,14,33,20,12,92,84,73,30.18,30.05,29.88,10,10,4,17,2,25,0.00,7,Snow,155
2013-1-30,56,47,38,51,44,33,91,82,75,29.87,29.48,29.19,10,10,4,25,16,39,0.00,6,Rain,180
2013-1-31,54,34,14,52,26,4,94,68,43,29.53,29.16,28.79,10,10,2,24,11,38,0.00,8,Rain-Snow,240